createdAt,value
2022-07-25T00:02:03.137Z,21.36
2022-07-25T00:05:06.821Z,21.32
2022-07-25T00:08:09.492Z,21.34
2022-07-25T00:11:12.393Z,21.39
2022-07-25T00:14:15.069Z,21.36
2022-07-25T00:17:18.152Z,21.31
2022-07-25T00:20:20.951Z,21.17
2022-07-25T00:23:23.909Z,21.07
2022-07-25T00:26:26.544Z,21.04
2022-07-25T00:29:29.751Z,20.95
2022-07-25T00:32:32.388Z,20.83
2022-07-25T00:35:35.322Z,20.90
2022-07-25T00:38:38.058Z,20.85
2022-07-25T00:41:41.156Z,21.16
2022-07-25T00:44:43.735Z,21.00
2022-07-25T00:47:46.668Z,20.98
2022-07-25T00:50:49.425Z,20.89
2022-07-25T00:53:52.450Z,20.92
2022-07-25T00:56:55.121Z,20.84
2022-07-25T00:59:58.529Z,20.78
2022-07-25T01:03:01.337Z,20.55
2022-07-25T01:06:04.677Z,20.58
2022-07-25T01:09:07.992Z,20.52
2022-07-25T01:12:11.011Z,20.34
2022-07-25T01:15:14.013Z,20.14
2022-07-25T01:18:17.726Z,19.98
2022-07-25T01:21:20.341Z,20.05
2022-07-25T01:24:23.332Z,20.18
2022-07-25T01:27:26.008Z,20.13
2022-07-25T01:30:28.977Z,20.12
2022-07-25T01:33:31.634Z,20.17
2022-07-25T01:36:34.808Z,20.00
2022-07-25T01:39:37.499Z,19.84
2022-07-25T01:42:40.834Z,19.83
2022-07-25T01:45:43.513Z,19.88
2022-07-25T01:48:46.674Z,19.86
2022-07-25T01:51:49.372Z,19.98
2022-07-25T01:54:52.340Z,19.98
2022-07-25T01:57:55.130Z,19.76
2022-07-25T02:00:59.328Z,19.61
2022-07-25T02:04:02.583Z,19.51
2022-07-25T02:07:06.156Z,19.45
2022-07-25T02:10:09.632Z,19.40
2022-07-25T02:13:12.473Z,19.43
2022-07-25T02:16:15.607Z,19.37
2022-07-25T02:19:18.382Z,19.28
2022-07-25T02:22:21.389Z,19.31
2022-07-25T02:25:24.028Z,19.33
2022-07-25T02:28:27.096Z,19.43
2022-07-25T02:31:29.707Z,19.35
2022-07-25T02:34:32.676Z,19.27
2022-07-25T02:37:35.381Z,19.20
2022-07-25T02:40:38.311Z,19.23
2022-07-25T02:43:40.896Z,19.20
2022-07-25T02:46:43.851Z,19.25
2022-07-25T02:49:47.517Z,19.26
2022-07-25T02:52:50.448Z,19.05
2022-07-25T02:55:53.059Z,19.01
2022-07-25T02:58:56.108Z,19.11
2022-07-25T03:01:58.836Z,19.06
2022-07-25T03:05:02.139Z,18.95
2022-07-25T03:08:06.313Z,18.89
2022-07-25T03:11:09.421Z,18.79
2022-07-25T03:14:12.027Z,18.88
2022-07-25T03:17:14.998Z,18.80
2022-07-25T03:20:17.685Z,18.83
2022-07-25T03:23:20.646Z,18.78
2022-07-25T03:26:23.268Z,18.86
2022-07-25T03:29:28.096Z,18.81
2022-07-25T03:32:30.858Z,18.77
2022-07-25T03:35:33.789Z,18.79
2022-07-25T03:38:38.010Z,18.80
2022-07-25T03:41:40.914Z,18.73
2022-07-25T03:44:43.550Z,18.62
2022-07-25T03:47:46.475Z,18.83
2022-07-25T03:50:49.243Z,18.82
2022-07-25T03:54:05.450Z,18.75
2022-07-25T03:57:08.340Z,18.64
2022-07-25T04:00:12.599Z,18.84
2022-07-25T04:03:15.665Z,19.02
2022-07-25T04:06:18.741Z,19.03
2022-07-25T04:09:22.204Z,18.95
2022-07-25T04:12:24.892Z,18.91
2022-07-25T04:15:27.947Z,19.19
2022-07-25T04:18:34.231Z,19.26
2022-07-25T04:21:37.293Z,19.43
2022-07-25T04:24:40.165Z,19.63
2022-07-25T04:27:43.413Z,19.94
2022-07-25T04:30:46.358Z,20.12
2022-07-25T04:33:49.668Z,20.17
2022-07-25T04:36:52.399Z,20.40
2022-07-25T04:39:55.635Z,20.56
2022-07-25T04:42:58.261Z,20.93
2022-07-25T04:46:02.096Z,21.18
2022-07-25T04:49:04.952Z,21.37
2022-07-25T04:52:07.969Z,21.43
2022-07-25T04:55:11.237Z,21.10
2022-07-25T04:58:14.427Z,21.17
2022-07-25T05:01:17.262Z,21.65
2022-07-25T05:04:20.250Z,21.70
2022-07-25T05:07:22.866Z,21.98
2022-07-25T05:10:27.797Z,22.06
2022-07-25T05:13:30.465Z,22.01
2022-07-25T05:16:33.422Z,22.16
2022-07-25T05:19:36.174Z,22.35
2022-07-25T05:22:39.318Z,22.54
2022-07-25T05:25:42.011Z,22.58
2022-07-25T05:28:45.042Z,23.09
2022-07-25T05:31:47.808Z,22.89
2022-07-25T05:34:50.912Z,23.45
2022-07-25T05:37:53.628Z,23.45
2022-07-25T05:40:56.842Z,23.59
2022-07-25T05:43:59.460Z,23.80
2022-07-25T05:47:02.571Z,24.14
2022-07-25T05:50:05.538Z,24.01
2022-07-25T05:53:08.929Z,24.26
2022-07-25T05:56:11.600Z,24.42
2022-07-25T05:59:15.157Z,24.68
2022-07-25T06:02:17.933Z,24.56
2022-07-25T06:05:20.935Z,24.47
2022-07-25T06:08:23.988Z,24.77
2022-07-25T06:11:30.638Z,24.88
2022-07-25T06:14:33.873Z,25.16
2022-07-25T06:17:36.906Z,25.27
2022-07-25T06:20:39.532Z,25.05
2022-07-25T06:23:42.614Z,25.34
2022-07-25T06:26:45.332Z,25.12
2022-07-25T06:29:48.521Z,25.42
2022-07-25T06:32:51.263Z,25.84
2022-07-25T06:35:54.289Z,25.69
2022-07-25T06:38:56.972Z,26.23
2022-07-25T06:42:00.325Z,26.12
2022-07-25T06:45:09.667Z,26.63
2022-07-25T06:48:13.494Z,26.49
2022-07-25T06:51:16.370Z,26.49
2022-07-25T06:54:19.380Z,26.48
2022-07-25T06:57:22.007Z,26.67
2022-07-25T07:00:25.471Z,26.40
2022-07-25T07:03:28.446Z,26.47
2022-07-25T07:06:31.667Z,26.77
2022-07-25T07:09:34.526Z,26.84
2022-07-25T07:12:37.649Z,27.14
2022-07-25T07:15:50.301Z,27.13
2022-07-25T07:18:53.544Z,27.44
2022-07-25T07:21:56.172Z,27.43
2022-07-25T07:24:59.468Z,27.35
2022-07-25T07:28:02.338Z,27.52
2022-07-25T07:31:16.105Z,27.56
2022-07-25T07:34:19.678Z,27.83
2022-07-25T07:37:22.817Z,27.77
2022-07-25T07:40:26.903Z,28.12
2022-07-25T07:43:32.004Z,27.87
2022-07-25T07:46:34.871Z,27.89
2022-07-25T07:49:38.162Z,28.27
2022-07-25T07:52:41.368Z,28.39
2022-07-25T07:55:44.519Z,28.38
2022-07-25T07:58:47.412Z,28.48
2022-07-25T08:01:50.494Z,28.55
2022-07-25T08:04:53.470Z,28.69
2022-07-25T08:07:56.248Z,28.63
2022-07-25T08:10:59.995Z,28.88
2022-07-25T08:14:04.947Z,28.94
2022-07-25T08:17:08.067Z,28.60
2022-07-25T08:20:36.892Z,28.88
2022-07-25T08:23:39.824Z,29.17
2022-07-25T08:26:42.630Z,29.02
2022-07-25T08:29:45.579Z,29.02
2022-07-25T08:32:51.354Z,29.27
2022-07-25T08:35:55.749Z,29.28
2022-07-25T08:38:58.435Z,29.50
2022-07-25T08:42:05.468Z,29.68
2022-07-25T08:45:19.653Z,29.65
2022-07-25T08:48:25.117Z,29.80
2022-07-25T08:51:28.712Z,30.06
2022-07-25T08:54:31.902Z,30.25
2022-07-25T08:57:35.881Z,30.50
2022-07-25T09:00:39.360Z,30.32
2022-07-25T09:03:43.452Z,30.40
2022-07-25T09:06:51.442Z,30.63
2022-07-25T09:09:54.141Z,30.75
2022-07-25T09:13:11.041Z,30.46
2022-07-25T09:16:13.918Z,30.99
2022-07-25T09:19:23.238Z,31.16
2022-07-25T09:22:26.022Z,31.12
2022-07-25T09:25:30.013Z,31.37
2022-07-25T09:28:40.144Z,31.78
2022-07-25T09:31:43.217Z,31.92
2022-07-25T09:34:47.826Z,32.15
2022-07-25T09:37:50.692Z,32.28
2022-07-25T09:40:59.024Z,31.57
2022-07-25T09:44:02.043Z,31.53
2022-07-25T09:47:12.422Z,31.48
2022-07-25T09:50:18.693Z,31.94
2022-07-25T09:53:21.397Z,31.79
2022-07-25T09:56:24.365Z,31.80
2022-07-25T09:59:27.028Z,32.08
2022-07-25T10:02:48.587Z,32.18
2022-07-25T10:06:21.597Z,31.24
2022-07-25T10:09:24.431Z,32.48
2022-07-25T10:12:27.734Z,31.94
2022-07-25T10:15:43.923Z,32.37
2022-07-25T10:18:49.707Z,33.11
2022-07-25T10:21:56.000Z,32.57
2022-07-25T10:25:10.666Z,32.38
2022-07-25T10:28:20.213Z,31.98
2022-07-25T10:31:31.978Z,32.07
2022-07-25T10:34:35.279Z,31.66
2022-07-25T10:37:38.332Z,32.38
2022-07-25T10:40:46.612Z,33.29
2022-07-25T10:43:50.876Z,33.40
2022-07-25T10:47:14.571Z,33.09
2022-07-25T10:50:34.774Z,32.91
2022-07-25T10:53:48.413Z,32.90
2022-07-25T10:56:54.674Z,33.18
2022-07-25T11:00:06.475Z,33.23
2022-07-25T11:03:13.425Z,33.51
2022-07-25T11:06:37.129Z,33.80
2022-07-25T11:09:42.832Z,34.03
2022-07-25T11:12:45.594Z,34.18
2022-07-25T11:15:48.668Z,34.12
2022-07-25T11:18:51.264Z,33.87
2022-07-25T11:21:56.853Z,33.78
2022-07-25T11:25:00.561Z,34.18
2022-07-25T11:28:04.079Z,34.58
2022-07-25T11:31:07.245Z,34.35
2022-07-25T11:34:10.362Z,34.52
2022-07-25T11:37:14.661Z,34.25
2022-07-25T11:40:19.573Z,34.10
2022-07-25T11:43:23.387Z,34.15
2022-07-25T11:46:26.447Z,34.31
2022-07-25T11:49:29.530Z,34.10
2022-07-25T11:52:34.812Z,34.35
2022-07-25T11:55:42.502Z,34.33
2022-07-25T11:59:00.037Z,34.04
2022-07-25T12:02:02.802Z,34.08
2022-07-25T12:05:11.529Z,34.11
2022-07-25T12:08:19.468Z,33.82
2022-07-25T12:11:23.503Z,33.09
2022-07-25T12:14:26.358Z,33.83
2022-07-25T12:17:29.374Z,34.00
2022-07-25T12:20:34.270Z,34.60
2022-07-25T12:23:39.003Z,35.00
2022-07-25T12:26:41.692Z,35.42
2022-07-25T12:29:44.777Z,35.03
2022-07-25T12:32:47.411Z,34.90
2022-07-25T12:35:50.404Z,34.93
2022-07-25T12:38:53.097Z,34.98
2022-07-25T12:41:56.068Z,34.78
2022-07-25T12:44:58.677Z,35.16
2022-07-25T12:48:01.621Z,35.15
2022-07-25T12:51:04.260Z,35.49
2022-07-25T12:54:07.792Z,35.69
2022-07-25T12:57:12.487Z,36.07
2022-07-25T13:00:19.144Z,35.78
2022-07-25T13:03:21.806Z,35.90
2022-07-25T13:06:24.866Z,35.94
2022-07-25T13:09:28.169Z,35.61
2022-07-25T13:12:31.273Z,35.58
2022-07-25T13:15:34.215Z,35.27
2022-07-25T13:18:37.462Z,35.64
2022-07-25T13:21:40.409Z,35.29
2022-07-25T13:24:43.702Z,35.79
2022-07-25T13:27:48.560Z,36.18
2022-07-25T13:30:51.722Z,36.18
2022-07-25T13:33:54.400Z,36.22
2022-07-25T13:36:57.513Z,36.06
2022-07-25T13:40:00.129Z,36.38
2022-07-25T13:43:03.013Z,35.98
2022-07-25T13:46:05.947Z,36.16
2022-07-25T13:49:09.335Z,36.09
2022-07-25T13:52:12.462Z,36.37
2022-07-25T13:55:15.601Z,36.26
2022-07-25T13:58:18.344Z,35.92
2022-07-25T14:01:21.338Z,36.47
2022-07-25T14:04:24.601Z,35.38
2022-07-25T14:07:27.305Z,35.18
2022-07-25T14:10:30.296Z,36.19
2022-07-25T14:13:33.100Z,36.51
2022-07-25T14:16:36.135Z,35.91
2022-07-25T14:19:38.857Z,36.33
2022-07-25T14:22:44.073Z,35.99
2022-07-25T14:25:46.803Z,36.01
2022-07-25T14:28:50.000Z,36.32
2022-07-25T14:31:52.906Z,35.93
2022-07-25T14:34:55.932Z,36.04
2022-07-25T14:37:58.916Z,36.32
2022-07-25T14:41:01.897Z,36.76
2022-07-25T14:44:04.851Z,36.70
2022-07-25T14:47:12.255Z,36.88
2022-07-25T14:50:15.830Z,37.04
2022-07-25T14:53:18.726Z,37.01
2022-07-25T14:56:21.677Z,36.97
2022-07-25T14:59:24.891Z,37.00
2022-07-25T15:02:28.363Z,36.62
2022-07-25T15:05:31.259Z,36.53
2022-07-25T15:08:33.980Z,36.79
2022-07-25T15:11:37.342Z,35.65
2022-07-25T15:14:41.734Z,35.84
2022-07-25T15:17:44.673Z,35.81
2022-07-25T15:20:48.699Z,35.32
2022-07-25T15:23:53.944Z,35.58
2022-07-25T15:26:58.135Z,35.45
2022-07-25T15:30:01.150Z,34.25
2022-07-25T15:33:03.989Z,35.56
2022-07-25T15:36:07.287Z,36.17
2022-07-25T15:39:10.341Z,35.99
2022-07-25T15:42:13.599Z,36.56
2022-07-25T15:45:32.524Z,36.37
2022-07-25T15:48:36.517Z,36.57
2022-07-25T15:51:39.349Z,36.49
2022-07-25T15:54:42.263Z,36.57
2022-07-25T15:57:44.928Z,36.51
2022-07-25T16:00:47.914Z,36.59
2022-07-25T16:03:50.906Z,36.57
2022-07-25T16:06:53.657Z,36.60
2022-07-25T16:09:57.264Z,36.48
2022-07-25T16:13:00.907Z,36.65
2022-07-25T16:16:04.788Z,36.50
2022-07-25T16:19:09.535Z,36.62
2022-07-25T16:22:12.959Z,36.58
2022-07-25T16:25:15.793Z,36.33
2022-07-25T16:28:18.996Z,36.32
2022-07-25T16:31:22.019Z,36.22
2022-07-25T16:34:29.072Z,36.18
2022-07-25T16:37:31.899Z,35.93
2022-07-25T16:40:35.742Z,35.96
2022-07-25T16:43:38.395Z,36.07
2022-07-25T16:46:41.659Z,35.32
2022-07-25T16:49:44.315Z,35.15
2022-07-25T16:52:47.363Z,34.71
2022-07-25T16:55:49.952Z,34.33
2022-07-25T16:58:53.908Z,34.18
2022-07-25T17:01:56.588Z,33.92
2022-07-25T17:04:59.941Z,33.80
2022-07-25T17:08:02.837Z,33.61
2022-07-25T17:11:06.106Z,33.39
2022-07-25T17:14:08.716Z,33.27
2022-07-25T17:17:12.108Z,33.15
2022-07-25T17:20:15.293Z,32.94
2022-07-25T17:23:18.299Z,32.82
2022-07-25T17:26:26.256Z,32.77
2022-07-25T17:29:29.824Z,32.69
2022-07-25T17:32:32.403Z,32.48
2022-07-25T17:35:35.416Z,32.50
2022-07-25T17:38:39.711Z,32.35
2022-07-25T17:41:42.801Z,32.29
2022-07-25T17:44:45.419Z,32.21
2022-07-25T17:47:48.776Z,32.04
2022-07-25T17:50:52.544Z,31.78
2022-07-25T17:53:55.631Z,31.49
2022-07-25T17:56:58.567Z,31.30
2022-07-25T18:00:01.851Z,31.14
2022-07-25T18:03:14.335Z,30.94
2022-07-25T18:06:17.543Z,30.66
2022-07-25T18:09:24.208Z,30.29
2022-07-25T18:12:29.508Z,30.27
2022-07-25T18:15:32.335Z,30.01
2022-07-25T18:18:35.507Z,29.74
2022-07-25T18:21:38.169Z,29.56
2022-07-25T18:24:41.332Z,29.52
2022-07-25T18:27:46.041Z,29.17
2022-07-25T18:30:49.160Z,29.15
2022-07-25T18:33:51.845Z,29.05
2022-07-25T18:36:54.963Z,28.92
2022-07-25T18:39:57.776Z,28.72
2022-07-25T18:43:00.734Z,28.66
2022-07-25T18:46:06.710Z,28.34
2022-07-25T18:49:13.084Z,28.00
2022-07-25T18:52:15.798Z,28.08
2022-07-25T18:55:18.765Z,27.93
2022-07-25T18:58:21.545Z,27.84
2022-07-25T19:01:24.719Z,27.79
2022-07-25T19:04:27.627Z,27.70
2022-07-25T19:07:31.373Z,27.59
2022-07-25T19:10:34.287Z,27.45
2022-07-25T19:13:51.190Z,27.36
2022-07-25T19:16:54.834Z,27.19
2022-07-25T19:20:01.949Z,27.12
2022-07-25T19:23:04.580Z,26.97
2022-07-25T19:26:08.741Z,26.89
2022-07-25T19:29:11.521Z,26.80
2022-07-25T19:32:16.023Z,26.69
2022-07-25T19:35:26.113Z,26.51
2022-07-25T19:38:29.857Z,26.43
2022-07-25T19:41:32.860Z,26.46
2022-07-25T19:44:37.048Z,26.36
2022-07-25T19:47:39.849Z,26.31
2022-07-25T19:50:42.892Z,26.15
2022-07-25T19:53:45.512Z,26.06
2022-07-25T19:56:48.525Z,26.00
2022-07-25T19:59:51.202Z,25.92
2022-07-25T20:02:54.447Z,25.80
2022-07-25T20:05:57.419Z,25.65
2022-07-25T20:09:00.225Z,25.48
2022-07-25T20:12:03.774Z,25.48
2022-07-25T20:15:06.874Z,25.42
2022-07-25T20:18:09.938Z,25.25
2022-07-25T20:21:13.146Z,25.13
2022-07-25T20:24:21.188Z,25.02
2022-07-25T20:27:24.364Z,25.00
2022-07-25T20:30:31.565Z,24.91
2022-07-25T20:33:37.325Z,24.78
2022-07-25T20:36:40.348Z,24.64
2022-07-25T20:39:43.049Z,24.64
2022-07-25T20:42:46.105Z,24.61
2022-07-25T20:45:48.867Z,24.42
2022-07-25T20:48:51.952Z,24.32
2022-07-25T20:51:54.910Z,24.24
2022-07-25T20:54:57.870Z,24.12
2022-07-25T20:58:00.949Z,24.16
2022-07-25T21:01:04.004Z,24.04
2022-07-25T21:04:07.936Z,24.04
2022-07-25T21:07:10.998Z,23.91
2022-07-25T21:10:14.191Z,23.81
2022-07-25T21:13:18.534Z,23.81
2022-07-25T21:16:21.798Z,23.72
2022-07-25T21:19:24.756Z,23.59
2022-07-25T21:22:27.701Z,23.44
2022-07-25T21:25:30.745Z,23.53
2022-07-25T21:28:33.672Z,23.60
2022-07-25T21:31:37.467Z,23.67
2022-07-25T21:34:41.228Z,23.63
2022-07-25T21:37:44.276Z,23.60
2022-07-25T21:40:47.101Z,23.47
2022-07-25T21:43:50.049Z,23.23
2022-07-25T21:46:53.106Z,23.25
2022-07-25T21:50:19.216Z,23.10
2022-07-25T21:53:27.543Z,23.24
2022-07-25T21:56:30.859Z,23.13
2022-07-25T21:59:33.581Z,23.06
2022-07-25T22:02:36.596Z,23.05
2022-07-25T22:05:39.640Z,22.99
2022-07-25T22:08:42.289Z,23.04
2022-07-25T22:11:46.728Z,22.90
2022-07-25T22:14:49.454Z,22.89
2022-07-25T22:17:52.558Z,22.90
2022-07-25T22:20:55.384Z,22.95
2022-07-25T22:23:58.569Z,22.89
2022-07-25T22:27:01.335Z,22.61
2022-07-25T22:30:05.884Z,22.77
2022-07-25T22:33:08.956Z,22.85
2022-07-25T22:36:12.019Z,22.85
2022-07-25T22:39:15.809Z,22.81
2022-07-25T22:42:18.945Z,22.57
2022-07-25T22:45:23.960Z,22.47
2022-07-25T22:48:27.121Z,22.44
2022-07-25T22:51:30.282Z,22.49
2022-07-25T22:54:34.095Z,22.60
2022-07-25T22:57:37.739Z,22.65
2022-07-25T23:00:40.836Z,22.75
2022-07-25T23:03:43.551Z,22.78
2022-07-25T23:06:46.787Z,22.76
2022-07-25T23:09:49.417Z,22.66
2022-07-25T23:12:52.434Z,22.61
2022-07-25T23:15:55.118Z,22.60
2022-07-25T23:18:58.177Z,22.61
2022-07-25T23:22:00.905Z,22.61
2022-07-25T23:25:04.505Z,22.53
2022-07-25T23:28:07.453Z,22.43
2022-07-25T23:31:10.457Z,22.43
2022-07-25T23:34:13.189Z,22.41
2022-07-25T23:37:16.290Z,22.40
2022-07-25T23:40:19.013Z,22.31
2022-07-25T23:43:55.498Z,22.16
2022-07-25T23:46:45.809Z,22.26
2022-07-25T23:49:49.704Z,22.26
2022-07-25T23:52:52.459Z,22.26
2022-07-25T23:55:55.430Z,22.22
2022-07-25T23:58:58.128Z,22.21
